logo
Search for airport 
image banner adimage banner adimage banner ad
image banner ad

EICLO - Craanmore

Located in Clonakilty, Ireland

ICAO - , IATA -

Data provided by Airmate  

General information

Coordinates: N51°37'34" W8°55'1"
Elevation is 60 feet MSL.
Magnetic variation is -3° East
View others Airports in County Cork

Operational data

Special qualification required
Current time UTC:
Current local time:
Weather at : EICK - Cork ( 38 km )
METAR: EICK 191630Z 35012KT 9999 SCT026 BKN040 14/08 Q1023 NOSIG
TAF: TAF AMD EICK 191216Z 1912/2012 33013KT 9999 FEW012 BKN016 TEMPO 1912/1915 BKN012 BECMG 1922/1924 VRB03KT TEMPO 2000/2008 3000 BR PROB40 TEMPO 2000/2008 0500 FG BKN001
View NOTAMs / SUP AIP / TFR affecting this airport [VIEW]
Communications frequencies: [VIEW]

Runways:

RWY identifierQFULength (ft)Width (ft)SurfaceLDA (ft)
28281°281862GRAS
10101°281862GRAS

Airport contact information

Address: Clonakilty Ireland

Satellite view of EICLO